Time;durP1;ratioP1;P1;durP2;ratioP2;P2;SDS_P1;SDS_P2;PMS_P1;PMS_P2;Temp;Humidity;BMP_temperature;BMP_pressure;BME280_temperature;BME280_humidity;BME280_pressure;Samples;Min_cycle;Max_cycle;Signal;HPM_P1;HPM_P2
2023/10/02 00:02:40;;;;;;;;;;;;;;;15.09;63.78;98747.16;5146203;27;20110;-67
2023/10/02 00:05:40;;;;;;;;;;;;;;;15.07;63.76;98738.44;5138165;27;20010;-66
2023/10/02 00:08:40;;;;;;;;;;;;;;;15.02;63.88;98727.66;5144129;27;19930;-67
2023/10/02 00:11:37;;;;;;;;;;;;;;;14.94;64.07;98731.19;5146274;27;19923;-67
2023/10/02 00:14:34;;;;;;;;;;;;;;;14.96;64.09;98739.06;5139751;27;19923;-66
2023/10/02 00:17:24;;;;;;;;;;;;;;;14.95;64.10;98730.06;5144414;27;20281;-67
2023/10/02 00:20:21;;;;;;;;;;;;;;;14.97;64.19;98730.56;5140520;27;20498;-66
2023/10/02 00:23:11;;;;;;;;;;;;;;;14.98;64.07;98726.69;5139227;27;19954;-66
2023/10/02 00:26:03;;;;;;;;;;;;;;;14.90;64.24;98724.72;5147480;27;19937;-67
2023/10/02 00:28:52;;;;;;;;;;;;;;;14.87;64.05;98725.41;5145329;27;20365;-70
2023/10/02 00:31:44;;;;;;;;;;;;;;;14.81;64.12;98718.47;5126805;27;19923;-66
2023/10/02 00:34:32;;;;;;;;;;;;;;;14.80;64.37;98725.84;5144776;27;19965;-67
2023/10/02 00:37:20;;;;;;;;;;;;;;;14.75;64.47;98716.97;5138274;27;19984;-66
2023/10/02 00:40:09;;;;;;;;;;;;;;;14.72;64.35;98715.72;5143002;27;20018;-67
2023/10/02 00:42:58;;;;;;;;;;;;;;;14.75;64.25;98712.31;5143064;27;19975;-66
2023/10/02 00:45:49;;;;;;;;;;;;;;;14.75;64.15;98714.25;5145241;27;20372;-67
2023/10/02 00:48:39;;;;;;;;;;;;;;;14.72;64.41;98714.91;5133237;27;19956;-68
2023/10/02 00:51:27;;;;;;;;;;;;;;;14.73;64.20;98713.78;5125647;27;19923;-67
2023/10/02 00:54:27;;;;;;;;;;;;;;;14.68;64.60;98723.72;5142899;27;19923;-66
2023/10/02 00:57:19;;;;;;;;;;;;;;;14.62;64.50;98722.28;5138097;27;20343;-66
2023/10/02 01:00:17;;;;;;;;;;;;;;;14.57;64.36;98711.47;5146075;27;19923;-66
2023/10/02 01:03:05;;;;;;;;;;;;;;;14.53;64.43;98721.44;5117323;27;20407;-66
2023/10/02 01:05:58;;;;;;;;;;;;;;;14.52;64.53;98710.81;5111424;27;19954;-66
2023/10/02 01:08:49;;;;;;;;;;;;;;;14.50;64.50;98716.63;5114549;27;19927;-66
2023/10/02 01:11:39;;;;;;;;;;;;;;;14.51;64.36;98712.75;5115338;27;19984;-66
2023/10/02 01:14:40;;;;;;;;;;;;;;;14.53;64.35;98715.97;5116284;27;20266;-66
2023/10/02 01:17:28;;;;;;;;;;;;;;;14.49;64.57;98708.72;5118780;27;20088;-66
2023/10/02 01:20:32;;;;;;;;;;;;;;;14.51;64.37;98712.75;5123561;27;19931;-66
2023/10/02 01:23:25;;;;;;;;;;;;;;;14.51;64.44;98711.94;5114246;27;20439;-66
2023/10/02 01:26:15;;;;;;;;;;;;;;;14.47;64.47;98705.47;5114894;27;20019;-66
2023/10/02 01:29:06;;;;;;;;;;;;;;;14.43;64.22;98710.75;5126005;27;19927;-66
2023/10/02 01:31:54;;;;;;;;;;;;;;;14.42;64.35;98703.69;5122017;27;19928;-66
2023/10/02 01:34:42;;;;;;;;;;;;;;;14.39;64.20;98704.34;5118710;27;19973;-65
2023/10/02 01:37:34;;;;;;;;;;;;;;;14.35;64.60;98703.34;5114388;27;19930;-65
2023/10/02 01:40:33;;;;;;;;;;;;;;;14.31;64.54;98702.34;5121360;27;20470;-65
2023/10/02 01:43:24;;;;;;;;;;;;;;;14.28;64.71;98708.47;5117970;27;20017;-65
2023/10/02 01:46:17;;;;;;;;;;;;;;;14.31;64.62;98707.81;5117020;27;20019;-65
2023/10/02 01:49:24;;;;;;;;;;;;;;;14.32;64.37;98706.69;5125784;27;19923;-65
2023/10/02 01:52:13;;;;;;;;;;;;;;;14.29;64.52;98704.63;5125542;27;20011;-65
2023/10/02 01:55:03;;;;;;;;;;;;;;;14.30;64.70;98711.69;5117665;27;19924;-66
2023/10/02 01:57:51;;;;;;;;;;;;;;;14.26;64.70;98703.31;5127337;27;20031;-65
2023/10/02 02:00:42;;;;;;;;;;;;;;;14.24;64.88;98702.81;5115963;27;20409;-65
2023/10/02 02:03:31;;;;;;;;;;;;;;;14.22;64.85;98696.88;5121259;27;20016;-65
2023/10/02 02:06:21;;;;;;;;;;;;;;;14.20;64.88;98703.78;5134513;27;19946;-65
2023/10/02 02:09:22;;;;;;;;;;;;;;;14.23;64.75;98700.41;5123222;28;19985;-65
2023/10/02 02:12:11;;;;;;;;;;;;;;;14.23;64.89;98701.22;5118398;28;19950;-66
2023/10/02 02:15:04;;;;;;;;;;;;;;;14.15;65.04;98704.72;5121263;27;20380;-67
2023/10/02 02:17:54;;;;;;;;;;;;;;;14.16;64.71;98707.13;5123755;28;19930;-65
2023/10/02 02:20:57;;;;;;;;;;;;;;;14.12;65.12;98705.34;5126258;28;20388;-65
2023/10/02 02:23:45;;;;;;;;;;;;;;;14.10;65.12;98715.78;5119677;28;19927;-65
2023/10/02 02:26:33;;;;;;;;;;;;;;;14.12;65.15;98717.09;5123124;28;19976;-65
2023/10/02 02:29:26;;;;;;;;;;;;;;;14.07;65.24;98716.44;5116292;28;19930;-66
2023/10/02 02:32:19;;;;;;;;;;;;;;;14.03;65.32;98709.97;5117892;28;20292;-65
2023/10/02 02:35:09;;;;;;;;;;;;;;;14.00;65.28;98703.19;5124774;28;20059;-65
2023/10/02 02:37:57;;;;;;;;;;;;;;;13.95;65.59;98705.25;5119932;28;20451;-65
2023/10/02 02:41:05;;;;;;;;;;;;;;;13.89;65.62;98708.13;5113535;28;19934;-65
2023/10/02 02:43:53;;;;;;;;;;;;;;;13.91;65.65;98710.56;5117179;27;20365;-65
2023/10/02 02:46:53;;;;;;;;;;;;;;;13.91;65.78;98709.75;5113359;27;19931;-65
2023/10/02 02:49:51;;;;;;;;;;;;;;;13.88;65.58;98708.44;5123366;27;19931;-65
2023/10/02 02:52:41;;;;;;;;;;;;;;;13.88;65.34;98702.97;5125033;27;20426;-65
2023/10/02 02:55:30;;;;;;;;;;;;;;;13.88;65.46;98705.72;5112328;27;19931;-65
2023/10/02 02:58:20;;;;;;;;;;;;;;;13.87;65.64;98704.09;5125580;27;20296;-65
2023/10/02 03:01:12;;;;;;;;;;;;;;;13.89;65.44;98715.50;5118667;27;20053;-65
2023/10/02 03:04:11;;;;;;;;;;;;;;;13.85;65.36;98714.53;5124239;27;19970;-65
2023/10/02 03:07:09;;;;;;;;;;;;;;;13.81;65.31;98716.28;5125286;27;19927;-65
2023/10/02 03:10:01;;;;;;;;;;;;;;;13.82;65.19;98715.16;5128453;27;19934;-65
2023/10/02 03:12:51;;;;;;;;;;;;;;;13.81;65.35;98716.28;5120262;27;19931;-65
2023/10/02 03:15:46;;;;;;;;;;;;;;;13.81;65.48;98716.28;5124854;27;19930;-65
2023/10/02 03:18:36;;;;;;;;;;;;;;;13.81;65.39;98719.03;5124129;27;19928;-68
2023/10/02 03:21:24;;;;;;;;;;;;;;;13.79;65.34;98721.25;5126162;27;19967;-68
2023/10/02 03:24:18;;;;;;;;;;;;;;;13.73;65.57;98708.84;5112133;27;19931;-66
2023/10/02 03:27:10;;;;;;;;;;;;;;;13.78;65.63;98714.16;5124355;27;19962;-66
2023/10/02 03:29:58;;;;;;;;;;;;;;;13.74;65.73;98713.16;5126320;27;19988;-65
2023/10/02 03:32:46;;;;;;;;;;;;;;;13.71;65.58;98711.09;5125289;27;19939;-65
2023/10/02 03:35:38;;;;;;;;;;;;;;;13.67;65.49;98704.63;5128667;27;19924;-66
2023/10/02 03:38:26;;;;;;;;;;;;;;;13.66;65.44;98705.75;5120266;27;19932;-66
2023/10/02 03:41:16;;;;;;;;;;;;;;;13.65;65.47;98706.88;5116436;27;19928;-66
2023/10/02 03:44:06;;;;;;;;;;;;;;;13.59;65.74;98700.75;5118436;27;20309;-65
2023/10/02 03:46:59;;;;;;;;;;;;;;;13.58;65.65;98707.28;5117500;27;20013;-66
2023/10/02 03:49:49;;;;;;;;;;;;;;;13.53;65.84;98707.41;5121322;27;20003;-65
2023/10/02 03:52:37;;;;;;;;;;;;;;;13.52;65.89;98700.34;5123257;27;19931;-66
2023/10/02 03:55:26;;;;;;;;;;;;;;;13.45;65.69;98700.00;5123590;27;19930;-66
2023/10/02 03:58:16;;;;;;;;;;;;;;;13.49;65.78;98688.16;5116501;27;20273;-66
2023/10/02 04:01:08;;;;;;;;;;;;;;;13.47;65.79;98687.63;5126149;27;20537;-68
2023/10/02 04:04:10;;;;;;;;;;;;;;;13.46;65.63;98686.03;5117434;27;20387;-68
2023/10/02 04:06:58;;;;;;;;;;;;;;;13.45;65.45;98687.16;5118583;27;20072;-68
2023/10/02 04:09:50;;;;;;;;;;;;;;;13.43;65.60;98683.94;5121659;27;20410;-69
2023/10/02 04:12:50;;;;;;;;;;;;;;;13.40;65.74;98689.19;5124828;27;19945;-68
2023/10/02 04:15:43;;;;;;;;;;;;;;;13.37;65.81;98687.91;5114630;27;20090;-68
2023/10/02 04:18:49;;;;;;;;;;;;;;;13.37;65.70;98687.91;5124386;27;19923;-68
2023/10/02 04:21:38;;;;;;;;;;;;;;;13.40;65.69;98686.47;5128026;27;19923;-68
2023/10/02 04:24:26;;;;;;;;;;;;;;;13.36;65.89;98691.72;5119191;27;19962;-68
2023/10/02 04:27:18;;;;;;;;;;;;;;;13.35;65.79;98687.41;5122926;27;19977;-69
2023/10/02 04:30:24;;;;;;;;;;;;;;;13.31;65.79;98686.41;5118039;27;19923;-68
2023/10/02 04:33:14;;;;;;;;;;;;;;;13.30;66.02;98691.03;5122295;27;19924;-69
2023/10/02 04:36:05;;;;;;;;;;;;;;;13.29;65.88;98689.44;5122003;27;20316;-68
2023/10/02 04:38:55;;;;;;;;;;;;;;;13.32;65.68;98698.94;5124687;27;19931;-68
2023/10/02 04:42:09;;;;;;;;;;;;;;;13.25;65.94;98693.91;5117752;27;19939;-68
2023/10/02 04:44:56;;;;;;;;;;;;;;;13.26;65.97;98697.44;5116518;27;20025;-69
2023/10/02 04:47:44;;;;;;;;;;;;;;;13.25;65.83;98696.63;5116682;27;20404;-68
2023/10/02 04:50:36;;;;;;;;;;;;;;;13.20;66.03;98696.72;5113301;27;19930;-68
2023/10/02 04:53:24;;;;;;;;;;;;;;;13.17;66.07;98696.53;5117821;27;19924;-68
2023/10/02 04:56:24;;;;;;;;;;;;;;;13.16;66.57;98697.66;5122652;27;19931;-69
2023/10/02 04:59:13;;;;;;;;;;;;;;;13.14;66.50;98691.69;5122944;27;20270;-68
2023/10/02 05:05:06;;;;;;;;;;;;;;;13.09;66.71;98695.34;5130958;27;19935;-68
2023/10/02 05:07:53;;;;;;;;;;;;;;;13.12;66.65;98692.00;5144518;27;20468;-69
2023/10/02 05:10:42;;;;;;;;;;;;;;;13.10;66.61;98692.34;5142015;27;19927;-69
2023/10/02 05:13:59;;;;;;;;;;;;;;;13.16;66.34;98687.56;5141525;27;19931;-68
2023/10/02 05:16:46;;;;;;;;;;;;;;;13.17;66.67;98691.09;5144896;27;20014;-68
2023/10/02 05:19:56;;;;;;;;;;;;;;;13.18;66.50;98684.50;5142160;27;19923;-68
2023/10/02 05:22:45;;;;;;;;;;;;;;;13.16;66.41;98694.94;5125035;27;19975;-68
2023/10/02 05:25:36;;;;;;;;;;;;;;;13.16;66.49;98695.75;5144729;27;20021;-69
2023/10/02 05:28:25;;;;;;;;;;;;;;;13.17;66.26;98693.81;5142908;27;19930;-68
2023/10/02 05:31:16;;;;;;;;;;;;;;;13.11;66.77;98696.66;5144077;27;19993;-69
2023/10/02 05:34:07;;;;;;;;;;;;;;;13.12;66.67;98705.66;5138519;27;19931;-68
2023/10/02 05:37:11;;;;;;;;;;;;;;;13.11;66.69;98704.84;5141705;27;20014;-69
2023/10/02 05:40:37;;;;;;;;;;;;;;;13.13;66.72;98703.72;5136958;27;20515;-69
2023/10/02 05:43:19;;;;;;;;;;;;;;;13.10;66.61;98708.69;5139337;27;20018;-69
2023/10/02 05:46:08;;;;;;;;;;;;;;;13.14;66.71;98708.06;5146917;27;19934;-68
2023/10/02 05:49:00;;;;;;;;;;;;;;;13.16;66.87;98706.66;5139471;27;20287;-68
2023/10/02 05:51:49;;;;;;;;;;;;;;;13.15;66.85;98709.69;5142582;27;20604;-69
2023/10/02 05:54:37;;;;;;;;;;;;;;;13.10;66.66;98714.16;5147636;27;20333;-67
2023/10/02 05:57:31;;;;;;;;;;;;;;;13.14;66.84;98713.53;5144432;27;19934;-67
2023/10/02 06:00:20;;;;;;;;;;;;;;;13.17;66.82;98721.09;5138351;27;19951;-67
2023/10/02 06:03:11;;;;;;;;;;;;;;;13.19;67.00;98719.66;5126299;27;19927;-67
2023/10/02 06:06:21;;;;;;;;;;;;;;;13.21;67.01;98719.34;5134105;27;19934;-66
2023/10/02 06:09:16;;;;;;;;;;;;;;;13.26;66.82;98722.00;5140041;27;19927;-67
2023/10/02 06:12:05;;;;;;;;;;;;;;;13.24;66.89;98724.22;5143686;27;19930;-67
2023/10/02 06:14:56;;;;;;;;;;;;;;;13.23;67.02;98728.88;5139675;27;20277;-67
2023/10/02 06:17:44;;;;;;;;;;;;;;;13.29;67.26;98721.38;5141087;27;20065;-67
2023/10/02 06:20:33;;;;;;;;;;;;;;;13.30;67.14;98723.78;5146971;27;19930;-68
2023/10/02 06:23:22;;;;;;;;;;;;;;;13.32;67.03;98731.69;5141439;27;19931;-67
2023/10/02 06:26:11;;;;;;;;;;;;;;;13.36;66.94;98730.75;5143062;27;19927;-69
2023/10/02 06:29:16;;;;;;;;;;;;;;;13.37;67.26;98728.84;5147330;27;19923;-69
2023/10/02 06:32:05;;;;;;;;;;;;;;;13.42;67.36;98725.16;5144895;27;20017;-67
2023/10/02 06:34:57;;;;;;;;;;;;;;;13.49;66.87;98731.00;5142083;27;19928;-67
2023/10/02 06:37:47;;;;;;;;;;;;;;;13.54;67.25;98726.22;5150272;27;19923;-67
2023/10/02 06:40:37;;;;;;;;;;;;;;;13.58;67.05;98729.13;5141444;27;19931;-67
2023/10/02 06:43:29;;;;;;;;;;;;;;;13.63;67.24;98724.38;5143258;27;19946;-67
2023/10/02 06:46:19;;;;;;;;;;;;;;;13.68;67.43;98722.63;5143445;27;20401;-67
2023/10/02 06:49:15;;;;;;;;;;;;;;;13.73;67.44;98725.22;5141274;27;19947;-67
2023/10/02 06:52:12;;;;;;;;;;;;;;;13.74;67.62;98724.09;5131916;27;19927;-68
2023/10/02 06:55:03;;;;;;;;;;;;;;;13.81;67.70;98727.22;5144198;27;19927;-68
2023/10/02 06:57:52;;;;;;;;;;;;;;;13.85;67.84;98723.53;5141913;27;19930;-67
2023/10/02 07:03:39;;;;;;;;;;;;;;;13.99;68.31;98717.19;5098521;27;19969;-67
2023/10/02 07:06:28;;;;;;;;;;;;;;;14.05;68.26;98727.66;5098453;28;19931;-68
2023/10/02 07:09:16;;;;;;;;;;;;;;;14.12;68.38;98736.22;5133170;27;19927;-67
2023/10/02 07:12:13;;;;;;;;;;;;;;;14.16;68.41;98731.72;5130376;27;20483;-67
2023/10/02 07:15:12;;;;;;;;;;;;;;;14.23;68.27;98738.69;5121733;27;19923;-67
2023/10/02 07:18:04;;;;;;;;;;;;;;;14.29;68.35;98735.50;5124437;27;19928;-67
2023/10/02 07:20:53;;;;;;;;;;;;;;;14.38;68.30;98740.97;5118501;27;20387;-66
2023/10/02 07:23:44;;;;;;;;;;;;;;;14.44;68.09;98728.78;5119608;27;19927;-66
2023/10/02 07:26:51;;;;;;;;;;;;;;;14.52;68.26;98732.69;5123817;27;19924;-67
2023/10/02 07:29:43;;;;;;;;;;;;;;;14.59;68.45;98728.38;5126617;27;20452;-67
2023/10/02 07:32:32;;;;;;;;;;;;;;;14.66;68.73;98730.66;5124870;27;19942;-67
2023/10/02 07:35:22;;;;;;;;;;;;;;;14.70;68.71;98726.16;5112300;28;20297;-72
2023/10/02 07:38:11;;;;;;;;;;;;;;;14.77;68.77;98722.97;5120287;27;19924;-67
2023/10/02 07:41:06;;;;;;;;;;;;;;;14.81;68.83;98727.47;5118611;28;19931;-66
2023/10/02 07:43:55;;;;;;;;;;;;;;;14.88;68.86;98732.47;5121016;28;20418;-67
2023/10/02 07:46:44;;;;;;;;;;;;;;;14.95;69.17;98732.78;5119803;27;19927;-67
2023/10/02 07:49:34;;;;;;;;;;;;;;;15.01;69.16;98731.50;5123670;27;19930;-67
2023/10/02 07:52:29;;;;;;;;;;;;;;;15.05;69.08;98727.00;5125491;27;19960;-66
2023/10/02 07:55:23;;;;;;;;;;;;;;;15.13;69.34;98730.91;5121693;27;19931;-67
2023/10/02 07:58:13;;;;;;;;;;;;;;;15.23;69.23;98718.81;5117920;27;19989;-67
2023/10/02 08:01:06;;;;;;;;;;;;;;;15.30;69.41;98716.41;5120923;28;20333;-67
2023/10/02 08:03:55;;;;;;;;;;;;;;;15.38;69.28;98712.84;5080487;28;19943;-67
2023/10/02 08:06:45;;;;;;;;;;;;;;;15.46;69.20;98720.25;5075220;28;20401;-67
2023/10/02 08:09:47;;;;;;;;;;;;;;;15.52;69.04;98718.16;5078091;28;19928;-67
2023/10/02 08:12:37;;;;;;;;;;;;;;;15.53;68.92;98700.59;5076517;28;20161;-67
2023/10/02 08:15:32;;;;;;;;;;;;;;;15.66;69.02;98705.94;5070803;28;19924;-66
2023/10/02 08:18:22;;;;;;;;;;;;;;;15.74;69.18;98700.75;5059330;28;19929;-67
2023/10/02 08:21:10;;;;;;;;;;;;;;;15.81;69.14;98715.53;5061400;28;19924;-67
2023/10/02 08:24:00;;;;;;;;;;;;;;;15.89;69.04;98709.25;5068513;28;19925;-67
2023/10/02 08:26:50;;;;;;;;;;;;;;;15.95;69.14;98709.88;5077445;28;19932;-67
2023/10/02 08:29:41;;;;;;;;;;;;;;;16.02;69.38;98710.16;5066028;28;20015;-66
2023/10/02 08:32:30;;;;;;;;;;;;;;;16.06;69.82;98713.88;5071559;28;20712;-67
2023/10/02 08:35:19;;;;;;;;;;;;;;;16.16;69.61;98710.78;5061636;28;19967;-68
2023/10/02 08:38:21;;;;;;;;;;;;;;;16.24;69.83;98712.69;5069117;28;19962;-66
2023/10/02 08:41:10;;;;;;;;;;;;;;;16.34;69.95;98707.94;5068667;28;19925;-66
2023/10/02 08:44:02;;;;;;;;;;;;;;;16.42;69.84;98712.59;5065638;28;20059;-67
2023/10/02 08:46:51;;;;;;;;;;;;;;;16.48;69.85;98706.59;5061545;28;19925;-67
2023/10/02 08:49:39;;;;;;;;;;;;;;;16.57;70.06;98709.31;5061546;28;20011;-67
2023/10/02 08:52:38;;;;;;;;;;;;;;;16.63;70.06;98707.97;5067923;28;20386;-67
2023/10/02 08:55:35;;;;;;;;;;;;;;;16.67;69.76;98702.59;5066552;28;19936;-67
2023/10/02 08:58:27;;;;;;;;;;;;;;;16.74;69.47;98703.75;5066260;28;20033;-67
2023/10/02 09:01:20;;;;;;;;;;;;;;;16.79;69.46;98700.00;5068196;28;19982;-65
2023/10/02 09:07:24;;;;;;;;;;;;;;;16.96;69.18;98710.06;5101224;28;19924;-67
2023/10/02 09:10:18;;;;;;;;;;;;;;;17.02;68.84;98697.75;5103157;27;19931;-67
2023/10/02 09:13:10;;;;;;;;;;;;;;;17.13;68.76;98704.44;5109961;28;19971;-66
2023/10/02 09:16:02;;;;;;;;;;;;;;;17.20;67.98;98704.69;5107766;28;20376;-66
2023/10/02 09:19:07;;;;;;;;;;;;;;;17.25;68.14;98696.25;5104074;28;19940;-66
2023/10/02 09:22:06;;;;;;;;;;;;;;;17.33;68.37;98696.53;5103326;28;21009;-66
2023/10/02 09:25:18;;;;;;;;;;;;;;;17.43;68.86;98693.38;5101494;27;19931;-66
2023/10/02 09:28:13;;;;;;;;;;;;;;;17.52;68.44;98688.56;5100559;28;19993;-66
2023/10/02 09:31:14;;;;;;;;;;;;;;;17.60;67.92;98687.69;5100553;28;19923;-67
2023/10/02 09:34:10;;;;;;;;;;;;;;;17.67;67.25;98682.44;5105134;28;20448;-64
2023/10/02 09:37:26;;;;;;;;;;;;;;;17.74;67.53;98682.75;5102478;28;19924;-65
2023/10/02 09:43:36;;;;;;;;;;;;;;;17.90;67.19;98674.66;5090465;28;19934;-65
2023/10/02 09:46:29;;;;;;;;;;;;;;;17.98;66.72;98672.94;5096125;28;19928;-65
2023/10/02 09:49:21;;;;;;;;;;;;;;;18.04;66.88;98666.84;5105032;28;19928;-65
2023/10/02 09:52:15;;;;;;;;;;;;;;;18.12;66.82;98670.66;5100731;27;20581;-65
2023/10/02 09:55:07;;;;;;;;;;;;;;;18.23;67.12;98663.56;5104835;28;19931;-64
2023/10/02 09:57:55;;;;;;;;;;;;;;;18.36;65.85;98658.84;5102209;27;19948;-65
2023/10/02 10:00:58;;;;;;;;;;;;;;;18.43;65.78;98659.09;5101042;28;19960;-65
2023/10/02 10:03:51;;;;;;;;;;;;;;;18.48;65.00;98658.03;5070614;28;20574;-64
2023/10/02 10:06:49;;;;;;;;;;;;;;;18.60;66.06;98655.28;5065457;28;19935;-65
2023/10/02 10:12:55;;;;;;;;;;;;;;;18.85;65.37;98653.31;5048234;28;19986;-64
2023/10/02 10:15:43;;;;;;;;;;;;;;;18.93;65.39;98648.84;5062997;28;19932;-64
2023/10/02 10:18:41;;;;;;;;;;;;;;;19.00;64.57;98649.03;5058397;28;20002;-64
2023/10/02 10:21:55;;;;;;;;;;;;;;;19.05;63.27;98648.78;5059721;28;19935;-64
2023/10/02 10:24:58;;;;;;;;;;;;;;;19.13;64.46;98647.84;5050795;28;20775;-65
2023/10/02 10:28:00;;;;;;;;;;;;;;;19.20;63.61;98639.78;5062957;28;20499;-65
2023/10/02 10:30:50;;;;;;;;;;;;;;;19.24;62.77;98640.69;5064988;28;20267;-65
2023/10/02 10:33:41;;;;;;;;;;;;;;;19.28;63.71;98641.59;5066448;28;19924;-65
2023/10/02 10:36:35;;;;;;;;;;;;;;;19.45;63.33;98628.66;5059445;28;19924;-66
2023/10/02 10:39:44;;;;;;;;;;;;;;;19.54;62.66;98632.03;5064704;28;20416;-65
2023/10/02 10:42:42;;;;;;;;;;;;;;;19.57;62.33;98631.34;5065892;28;19924;-68
2023/10/02 10:45:33;;;;;;;;;;;;;;;19.57;59.81;98628.59;5064505;28;19934;-66
2023/10/02 10:48:22;;;;;;;;;;;;;;;19.55;60.72;98625.41;5063489;28;19935;-65
2023/10/02 10:51:20;;;;;;;;;;;;;;;19.58;60.76;98616.41;5059207;28;20022;-65
2023/10/02 10:54:19;;;;;;;;;;;;;;;19.59;59.77;98618.03;5066510;28;20065;-65
2023/10/02 10:57:22;;;;;;;;;;;;;;;19.69;61.39;98608.44;5066565;28;20019;-66
2023/10/02 11:00:24;;;;;;;;;;;;;;;19.74;61.00;98608.19;5064628;28;19933;-67
2023/10/02 11:03:15;;;;;;;;;;;;;;;19.86;60.15;98610.84;5092469;28;20008;-64
2023/10/02 11:06:04;;;;;;;;;;;;;;;19.87;58.87;98607.75;5106907;28;19931;-64
2023/10/02 11:09:11;;;;;;;;;;;;;;;19.97;59.44;98603.66;5097546;28;19923;-64
2023/10/02 11:12:02;;;;;;;;;;;;;;;20.02;59.45;98597.06;5103954;28;20436;-64
2023/10/02 11:14:51;;;;;;;;;;;;;;;20.04;57.96;98600.28;5096463;28;20069;-65
2023/10/02 11:17:42;;;;;;;;;;;;;;;20.11;58.66;98595.72;5102819;28;20410;-65
2023/10/02 11:20:33;;;;;;;;;;;;;;;20.10;57.67;98593.34;5105851;28;19924;-65
2023/10/02 11:23:31;;;;;;;;;;;;;;;20.20;58.89;98598.31;5104255;28;19928;-65
2023/10/02 11:26:21;;;;;;;;;;;;;;;20.21;58.33;98588.06;5107027;28;19931;-64
2023/10/02 11:29:20;;;;;;;;;;;;;;;20.27;58.94;98589.38;5105176;28;19923;-64
2023/10/02 11:32:20;;;;;;;;;;;;;;;20.31;58.45;98582.78;5094590;28;19997;-66
2023/10/02 11:35:08;;;;;;;;;;;;;;;20.34;57.58;98573.78;5105901;28;19931;-65
2023/10/02 11:37:58;;;;;;;;;;;;;;;20.55;56.17;98580.97;5108291;28;19924;-66
2023/10/02 11:40:47;;;;;;;;;;;;;;;20.55;55.42;98573.50;5105082;28;20305;-68
2023/10/02 11:43:35;;;;;;;;;;;;;;;20.53;55.21;98583.31;5105150;28;19935;-65
2023/10/02 11:46:23;;;;;;;;;;;;;;;20.52;53.52;98577.00;5106738;28;19930;-66
2023/10/02 11:49:12;;;;;;;;;;;;;;;20.61;53.39;98574.00;5106753;28;19923;-65
2023/10/02 11:52:00;;;;;;;;;;;;;;;20.63;53.44;98571.69;5111207;27;20704;-65
2023/10/02 11:54:49;;;;;;;;;;;;;;;20.66;52.67;98570.97;5106384;28;20421;-65
2023/10/02 11:57:38;;;;;;;;;;;;;;;20.67;52.90;98567.84;5109537;28;20403;-64
2023/10/02 12:00:26;;;;;;;;;;;;;;;20.78;52.63;98570.84;5108006;27;20019;-66
2023/10/02 12:03:18;;;;;;;;;;;;;;;20.86;51.57;98564.28;5110480;28;19976;-66
2023/10/02 12:06:11;;;;;;;;;;;;;;;20.88;52.07;98559.22;5105792;27;19943;-66
2023/10/02 12:09:00;;;;;;;;;;;;;;;20.90;51.31;98564.38;5103997;27;20381;-66
2023/10/02 12:11:50;;;;;;;;;;;;;;;20.92;51.37;98559.28;5109054;28;19924;-65
2023/10/02 12:14:39;;;;;;;;;;;;;;;20.97;50.83;98558.97;5105905;28;20381;-65
2023/10/02 12:17:31;;;;;;;;;;;;;;;21.01;50.78;98546.03;5111478;27;20385;-65
2023/10/02 12:20:22;;;;;;;;;;;;;;;21.02;51.48;98542.13;5106179;28;19931;-66
2023/10/02 12:23:11;;;;;;;;;;;;;;;21.00;50.61;98536.16;5108661;27;19924;-65
2023/10/02 12:26:00;;;;;;;;;;;;;;;21.09;49.91;98533.97;5109837;28;19961;-65
2023/10/02 12:28:50;;;;;;;;;;;;;;;21.17;49.36;98535.69;5113561;27;19931;-64
2023/10/02 12:31:38;;;;;;;;;;;;;;;21.25;48.27;98535.81;5105026;28;20011;-64
2023/10/02 12:34:27;;;;;;;;;;;;;;;21.21;48.66;98533.00;5117394;27;20376;-65
2023/10/02 12:37:18;;;;;;;;;;;;;;;21.23;48.27;98532.63;5107544;27;19924;-65
2023/10/02 12:40:12;;;;;;;;;;;;;;;21.32;47.54;98519.41;5111862;27;19931;-66
2023/10/02 12:43:01;;;;;;;;;;;;;;;21.36;48.02;98521.09;5108925;27;19931;-66
2023/10/02 12:45:50;;;;;;;;;;;;;;;21.38;48.06;98520.72;5101097;27;19928;-66
2023/10/02 12:48:39;;;;;;;;;;;;;;;21.38;48.04;98515.97;5099652;27;20370;-65
2023/10/02 12:51:27;;;;;;;;;;;;;;;21.47;48.30;98512.19;5112408;27;19924;-66
2023/10/02 12:54:15;;;;;;;;;;;;;;;21.54;47.28;98507.56;5109306;27;20381;-67
2023/10/02 12:57:07;;;;;;;;;;;;;;;21.54;47.95;98501.22;5105685;27;19969;-66
2023/10/02 12:59:56;;;;;;;;;;;;;;;21.60;47.03;98499.75;5097104;27;19935;-66
2023/10/02 13:02:45;;;;;;;;;;;;;;;21.63;47.17;98501.78;5100797;27;19928;-67
2023/10/02 13:05:35;;;;;;;;;;;;;;;21.64;48.09;98498.66;5106261;27;19931;-66
2023/10/02 13:08:23;;;;;;;;;;;;;;;21.61;46.92;98493.03;5106323;27;20006;-67
2023/10/02 13:11:13;;;;;;;;;;;;;;;21.62;47.24;98489.09;5114492;27;19923;-67
2023/10/02 13:14:02;;;;;;;;;;;;;;;21.70;46.79;98482.53;5111354;27;19931;-68
2023/10/02 13:16:50;;;;;;;;;;;;;;;21.75;46.41;98482.22;5101680;28;19931;-68
2023/10/02 13:19:40;;;;;;;;;;;;;;;21.71;48.11;98479.38;5108815;27;19968;-67
2023/10/02 13:22:27;;;;;;;;;;;;;;;21.71;46.43;98468.31;5111925;27;19924;-67
2023/10/02 13:25:15;;;;;;;;;;;;;;;21.77;45.50;98471.56;5094472;28;19932;-66
2023/10/02 13:28:07;;;;;;;;;;;;;;;21.78;45.53;98472.38;5114438;27;20468;-67
2023/10/02 13:30:56;;;;;;;;;;;;;;;21.76;47.68;98469.97;5109501;27;20381;-66
2023/10/02 13:33:46;;;;;;;;;;;;;;;21.76;44.76;98463.66;5096530;28;19928;-66
2023/10/02 13:36:37;;;;;;;;;;;;;;;21.82;44.57;98451.91;5103202;28;19958;-66
2023/10/02 13:39:25;;;;;;;;;;;;;;;21.84;45.15;98452.34;5107127;27;19927;-66
2023/10/02 13:42:14;;;;;;;;;;;;;;;21.94;46.21;98451.69;5103187;27;19924;-67
2023/10/02 13:45:02;;;;;;;;;;;;;;;21.98;43.18;98446.19;5104362;28;19927;-64
2023/10/02 13:47:50;;;;;;;;;;;;;;;22.03;44.53;98450.63;5106157;28;20016;-67
2023/10/02 13:50:38;;;;;;;;;;;;;;;21.97;45.46;98445.41;5104567;27;19992;-66
2023/10/02 13:53:45;;;;;;;;;;;;;;;21.90;45.89;98450.03;5106703;28;20389;-67
2023/10/02 13:56:35;;;;;;;;;;;;;;;21.91;45.12;98435.03;5109277;28;19931;-67
2023/10/02 13:59:23;;;;;;;;;;;;;;;21.94;44.41;98437.88;5102287;27;19931;-67
2023/10/02 14:02:11;;;;;;;;;;;;;;;22.00;44.17;98429.22;5103771;27;19928;-67
2023/10/02 14:05:03;;;;;;;;;;;;;;;22.05;43.71;98426.13;5112520;27;20386;-67
2023/10/02 14:07:51;;;;;;;;;;;;;;;22.11;44.51;98425.47;5114314;27;19927;-67
2023/10/02 14:10:41;;;;;;;;;;;;;;;22.09;44.29;98425.00;5107817;27;19935;-66
2023/10/02 14:13:29;;;;;;;;;;;;;;;22.10;43.80;98429.38;5102151;27;19932;-67
2023/10/02 14:16:19;;;;;;;;;;;;;;;22.15;43.75;98417.19;5106713;28;20270;-66
2023/10/02 14:19:07;;;;;;;;;;;;;;;22.21;42.59;98410.16;5110068;27;19946;-66
2023/10/02 14:21:55;;;;;;;;;;;;;;;22.26;42.46;98415.34;5106283;28;19970;-66
2023/10/02 14:24:44;;;;;;;;;;;;;;;22.30;43.16;98416.22;5109428;27;19933;-66
2023/10/02 14:27:34;;;;;;;;;;;;;;;22.26;43.17;98409.03;5110804;27;19923;-73
2023/10/02 14:30:22;;;;;;;;;;;;;;;22.26;43.43;98406.25;5103113;27;19951;-71
2023/10/02 14:33:11;;;;;;;;;;;;;;;22.23;44.00;98408.63;5107571;27;19928;-72
2023/10/02 14:36:06;;;;;;;;;;;;;;;22.26;42.58;98407.06;5112079;27;19931;-68
2023/10/02 14:38:57;;;;;;;;;;;;;;;22.29;42.14;98405.53;5104888;27;19951;-68
2023/10/02 14:41:45;;;;;;;;;;;;;;;22.32;43.54;98413.06;5101136;28;19973;-67
2023/10/02 14:44:35;;;;;;;;;;;;;;;22.33;43.40;98404.41;5107665;27;20007;-67
2023/10/02 14:47:23;;;;;;;;;;;;;;;22.32;43.14;98405.56;5107724;27;20019;-66
2023/10/02 14:50:13;;;;;;;;;;;;;;;22.34;43.54;98405.97;5102213;27;19931;-67
2023/10/02 14:53:01;;;;;;;;;;;;;;;22.37;43.42;98402.47;5111902;27;19927;-66
2023/10/02 14:55:50;;;;;;;;;;;;;;;22.40;43.63;98396.16;5102077;28;19959;-66
2023/10/02 14:58:40;;;;;;;;;;;;;;;22.39;44.25;98400.13;5103185;28;19934;-65
2023/10/02 15:01:30;;;;;;;;;;;;;;;22.37;43.78;98396.94;5109053;28;20293;-66
2023/10/02 15:04:18;;;;;;;;;;;;;;;22.41;43.50;98392.22;5107083;28;19924;-66
2023/10/02 15:07:07;;;;;;;;;;;;;;;22.41;43.36;98397.75;5101925;28;19927;-65
2023/10/02 15:09:55;;;;;;;;;;;;;;;22.40;43.01;98398.94;5107564;28;19935;-68
2023/10/02 15:12:44;;;;;;;;;;;;;;;22.42;43.64;98387.47;5096716;28;20509;-66
2023/10/02 15:15:32;;;;;;;;;;;;;;;22.40;44.84;98390.63;5105203;28;19935;-65